Time;durP1;ratioP1;P1;durP2;ratioP2;P2;SDS_P1;SDS_P2;PMS_P1;PMS_P2;Temp;Humidity;BMP_temperature;BMP_pressure;BME280_temperature;BME280_humidity;BME280_pressure;Samples;Min_cycle;Max_cycle;Signal;HPM_P1;HPM_P2
2024/04/10 00:01:53;;;;;;;;;19.00;17.00;;;;;15.42;62.85;99922.71;113413;223;169190;-55
2024/04/10 00:04:32;;;;;;;;;19.00;17.00;;;;;15.33;63.27;99924.81;113619;223;40533;-58
2024/04/10 00:07:10;;;;;;;;;17.67;16.33;;;;;15.22;63.66;99930.65;113381;220;170229;-58
2024/04/10 00:09:50;;;;;;;;;21.00;19.00;;;;;15.11;64.04;99929.86;113648;220;40917;-58
2024/04/10 00:12:33;;;;;;;;;19.00;16.00;;;;;15.00;64.33;99930.88;113378;220;169459;-57
2024/04/10 00:15:08;;;;;;;;;20.00;17.33;;;;;14.87;64.79;99932.22;113635;220;41490;-59
2024/04/10 00:17:44;;;;;;;;;21.00;18.00;;;;;14.79;65.14;99938.75;113716;220;40278;-59
2024/04/10 00:20:27;;;;;;;;;17.00;15.00;;;;;14.75;65.35;99937.04;113438;220;168998;-58
2024/04/10 00:23:12;;;;;;;;;18.00;16.00;;;;;14.72;65.71;99938.13;113560;220;41421;-57
2024/04/10 00:25:54;;;;;;;;;18.00;15.00;;;;;14.65;65.97;99933.77;113404;220;169960;-58
2024/04/10 00:28:37;;;;;;;;;19.00;17.00;;;;;14.61;66.22;99937.96;113596;223;40763;-58
2024/04/10 00:31:12;;;;;;;;;18.50;14.50;;;;;14.57;66.40;99943.10;113434;223;170552;-55
2024/04/10 00:33:53;;;;;;;;;16.00;14.00;;;;;14.44;66.79;99942.75;113617;223;40418;-56
2024/04/10 00:36:30;;;;;;;;;20.00;16.00;;;;;14.37;67.18;99943.89;113414;220;169759;-56
2024/04/10 00:39:07;;;;;;;;;19.00;17.00;;;;;14.32;67.50;99948.21;113594;220;40484;-58
2024/04/10 00:41:50;;;;;;;;;19.00;16.67;;;;;14.24;67.75;99949.91;113601;223;40512;-58
2024/04/10 00:44:27;;;;;;;;;18.00;16.00;;;;;14.18;68.09;99951.38;113572;220;40014;-57
2024/04/10 00:47:05;;;;;;;;;19.33;17.00;;;;;14.15;68.37;99952.13;113599;220;41402;-57
2024/04/10 00:49:48;;;;;;;;;22.00;19.00;;;;;14.05;68.66;99950.63;113419;223;169023;-58
2024/04/10 00:52:24;;;;;;;;;20.00;17.00;;;;;13.99;68.92;99952.37;113564;220;40467;-58
2024/04/10 00:55:04;;;;;;;;;17.00;16.00;;;;;13.93;69.11;99953.91;113407;223;169849;-57
2024/04/10 00:57:42;;;;;;;;;18.00;17.00;;;;;13.90;69.31;99956.19;113586;223;40801;-57
2024/04/10 01:00:17;;;;;;;;;21.00;19.00;;;;;13.87;69.42;99960.61;113446;220;170116;-58
2024/04/10 01:03:00;;;;;;;;;18.00;16.00;;;;;13.87;69.66;99966.04;113561;220;40647;-57
2024/04/10 01:05:37;;;;;;;;;19.00;17.00;;;;;13.89;70.02;99967.15;113622;220;40022;-56
2024/04/10 01:08:11;;;;;;;;;20.33;17.00;;;;;13.97;70.00;99964.52;113405;224;173829;-56
2024/04/10 01:10:50;;;;;;;;;21.00;18.00;;;;;14.00;69.97;99969.35;113648;223;39984;-55
2024/04/10 01:13:27;;;;;;;;;24.00;19.00;;;;;14.09;69.82;99968.08;113387;220;170446;-55
2024/04/10 01:16:07;;;;;;;;;20.50;19.00;;;;;14.05;69.94;99969.27;113729;220;41522;-55
2024/04/10 01:18:43;;;;;;;;;25.00;22.00;;;;;14.03;69.93;99971.00;113472;220;169657;-57
2024/04/10 01:21:17;;;;;;;;;;;;;;;13.97;69.91;99970.93;113588;224;40541;-56
2024/04/10 01:23:57;;;;;;;;;21.00;18.00;;;;;13.88;70.16;99972.10;113642;223;40156;-58
2024/04/10 01:26:41;;;;;;;;;20.67;18.33;;;;;13.81;70.42;99968.51;113653;224;41010;-58
2024/04/10 01:29:19;;;;;;;;;21.00;17.00;;;;;13.76;70.38;99971.38;113659;223;40249;-58
2024/04/10 01:31:59;;;;;;;;;22.50;19.50;;;;;13.65;70.63;99970.34;113411;224;169933;-57
2024/04/10 01:34:38;;;;;;;;;20.00;17.00;;;;;13.55;70.90;99973.88;113582;220;40425;-55
2024/04/10 01:37:24;;;;;;;;;22.00;17.00;;;;;13.46;71.16;99983.70;113375;224;169950;-55
2024/04/10 01:40:06;;;;;;;;;18.00;16.00;;;;;13.43;71.62;99990.48;113613;220;41270;-55
2024/04/10 01:42:45;;;;;;;;;17.50;15.50;;;;;13.35;71.97;99985.39;113423;220;170106;-54
2024/04/10 01:45:31;;;;;;;;;18.00;16.50;;;;;13.26;72.13;99978.55;113594;223;40610;-56
2024/04/10 01:48:08;;;;;;;;;20.00;18.00;;;;;13.23;72.36;99981.36;113407;220;170188;-56
2024/04/10 01:50:46;;;;;;;;;18.00;15.00;;;;;13.18;72.50;99986.40;113588;224;41630;-58
2024/04/10 01:53:22;;;;;;;;;25.00;21.00;;;;;13.17;72.82;99990.96;113554;224;41319;-59
2024/04/10 01:56:00;;;;;;;;;22.00;19.00;;;;;13.09;72.96;99994.12;113415;220;169422;-55
2024/04/10 01:58:40;;;;;;;;;18.50;16.50;;;;;12.99;73.10;99992.41;113617;224;41190;-56
2024/04/10 02:01:17;;;;;;;;;21.50;19.00;;;;;12.91;73.40;99993.74;113406;220;169200;-56
2024/04/10 02:03:58;;;;;;;;;20.50;17.50;;;;;12.90;73.70;99995.50;113623;224;39794;-56
2024/04/10 02:06:36;;;;;;;;;21.00;18.00;;;;;12.84;74.01;99995.65;113423;220;169392;-56
2024/04/10 02:09:16;;;;;;;;;19.00;17.00;;;;;12.77;74.21;99994.37;113597;224;40252;-55
2024/04/10 02:11:56;;;;;;;;;19.00;16.50;;;;;12.72;74.29;99997.30;113619;220;41840;-56
2024/04/10 02:14:41;;;;;;;;;23.00;20.00;;;;;12.72;74.42;99999.34;113592;220;41690;-59
2024/04/10 02:17:18;;;;;;;;;22.50;19.00;;;;;12.62;74.91;99998.46;113698;223;40273;-59
2024/04/10 02:19:54;;;;;;;;;21.00;17.00;;;;;12.56;75.22;99998.73;113432;220;169729;-59
2024/04/10 02:22:37;;;;;;;;;21.00;18.00;;;;;12.51;75.36;100000.48;113666;219;41442;-58
2024/04/10 02:25:19;;;;;;;;;19.00;18.00;;;;;12.51;75.50;100005.27;113425;223;170000;-54
2024/04/10 02:28:01;;;;;;;;;21.00;17.00;;;;;12.43;75.84;100004.63;113580;224;41739;-54
2024/04/10 02:30:38;;;;;;;;;20.00;18.00;;;;;12.38;75.99;100007.77;113400;221;170444;-54
2024/04/10 02:33:17;;;;;;;;;18.00;16.00;;;;;12.35;76.47;100006.60;113580;221;39829;-56
2024/04/10 02:35:58;;;;;;;;;19.67;17.00;;;;;12.31;76.56;100006.02;113565;221;40464;-55
2024/04/10 02:38:41;;;;;;;;;20.00;18.00;;;;;12.32;76.72;100007.64;113540;220;40817;-55
2024/04/10 02:41:22;;;;;;;;;19.00;16.00;;;;;12.30;76.79;100010.53;113568;223;42042;-54
2024/04/10 02:44:00;;;;;;;;;18.50;16.00;;;;;12.27;77.06;100013.15;113418;221;170204;-59
2024/04/10 02:46:37;;;;;;;;;23.00;19.00;;;;;12.26;77.22;100022.10;113584;221;39706;-58
2024/04/10 02:49:15;;;;;;;;;21.00;17.00;;;;;12.24;77.35;100024.20;113499;224;170885;-58
2024/04/10 02:51:50;;;;;;;;;22.00;19.00;;;;;12.18;77.35;100027.02;113683;224;39747;-58
2024/04/10 02:54:32;;;;;;;;;20.00;19.00;;;;;12.17;77.53;100031.19;113476;221;170423;-57
2024/04/10 02:57:08;;;;;;;;;21.00;19.00;;;;;12.13;77.63;100037.27;113554;223;40610;-57
2024/04/10 02:59:47;;;;;;;;;19.00;16.67;;;;;12.08;77.69;100041.41;113657;219;40254;-59
2024/04/10 03:02:28;;;;;;;;;23.00;20.00;;;;;12.04;77.97;100043.02;113421;223;169869;-59
2024/04/10 03:05:05;;;;;;;;;24.00;19.00;;;;;12.01;78.31;100054.68;113614;221;40525;-58
2024/04/10 03:07:43;;;;;;;;;19.50;17.00;;;;;12.01;78.15;100054.35;113376;221;170240;-58
2024/04/10 03:10:22;;;;;;;;;21.00;18.50;;;;;11.99;78.45;100050.92;113587;224;40754;-58
2024/04/10 03:12:57;;;;;;;;;23.00;19.00;;;;;11.98;78.49;100055.79;113352;224;170297;-58
2024/04/10 03:15:34;;;;;;;;;24.00;21.00;;;;;12.02;78.53;100069.42;113567;221;40435;-56
2024/04/10 03:18:10;;;;;;;;;26.00;21.00;;;;;12.01;78.51;100074.47;113405;221;170121;-56
2024/04/10 03:20:49;;;;;;;;;23.50;19.50;;;;;11.94;78.72;100085.14;113583;221;40132;-58
2024/04/10 03:23:33;;;;;;;;;22.50;19.00;;;;;11.90;78.89;100094.55;113576;224;40484;-58
2024/04/10 03:26:17;;;;;;;;;21.00;18.00;;;;;11.90;78.99;100095.30;113377;221;169631;-56
2024/04/10 03:28:56;;;;;;;;;23.00;18.50;;;;;11.88;78.96;100099.71;113569;221;40067;-58
2024/04/10 03:31:32;;;;;;;;;23.00;19.00;;;;;11.90;79.22;100099.09;113307;221;170492;-58
2024/04/10 03:34:21;;;;;;;;;22.00;19.00;;;;;11.86;79.26;100107.20;113637;224;41768;-57
2024/04/10 03:37:07;;;;;;;;;23.00;19.00;;;;;11.82;79.45;100104.16;113435;224;170122;-58
2024/04/10 03:39:46;;;;;;;;;22.00;18.50;;;;;11.77;79.59;100110.19;113617;221;41562;-55
2024/04/10 03:42:26;;;;;;;;;22.00;18.00;;;;;11.75;79.77;100112.84;113349;222;170725;-55
2024/04/10 03:45:05;;;;;;;;;23.00;19.00;;;;;11.69;79.83;100119.73;113558;222;40341;-57
2024/04/10 03:47:43;;;;;;;;;25.00;20.00;;;;;11.67;80.13;100127.91;113569;221;40353;-57
2024/04/10 03:50:22;;;;;;;;;21.50;19.00;;;;;11.67;80.18;100136.14;113278;222;169867;-59
2024/04/10 03:53:10;;;;;;;;;26.00;22.00;;;;;11.67;80.04;100144.05;113625;221;39904;-59
2024/04/10 03:55:53;;;;;;;;;24.00;20.00;;;;;11.74;80.19;100154.85;113397;221;170426;-58
2024/04/10 03:58:34;;;;;;;;;25.00;21.00;;;;;11.89;80.34;100161.73;113566;222;40977;-58
2024/04/10 04:01:09;;;;;;;;;26.00;22.00;;;;;12.04;80.28;100169.39;113396;221;170282;-57
2024/04/10 04:03:45;;;;;;;;;29.00;23.00;;;;;12.13;80.08;100171.16;113611;221;40906;-59
2024/04/10 04:06:24;;;;;;;;;26.00;22.67;;;;;12.25;80.13;100175.02;113439;221;170684;-59
2024/04/10 04:09:09;;;;;;;;;23.00;21.00;;;;;12.37;80.02;100182.16;113538;225;40573;-55
2024/04/10 04:11:50;;;;;;;;;26.00;22.00;;;;;12.57;79.90;100187.48;113568;225;39709;-54
2024/04/10 04:14:32;;;;;;;;;25.00;21.50;;;;;12.71;79.92;100190.91;113460;221;169986;-55
2024/04/10 04:17:12;;;;;;;;;29.50;25.00;;;;;12.84;79.79;100198.13;113659;225;40091;-56
2024/04/10 04:19:50;;;;;;;;;28.00;23.00;;;;;12.99;79.75;100208.63;113457;222;169895;-54
2024/04/10 04:22:33;;;;;;;;;30.00;25.00;;;;;13.09;79.56;100214.41;113729;221;40890;-54
2024/04/10 04:25:09;;;;;;;;;27.50;23.00;;;;;13.22;79.48;100221.33;113509;222;169744;-57
2024/04/10 04:27:42;;;;;;;;;29.00;24.00;;;;;13.34;79.38;100229.11;113671;222;40612;-59
2024/04/10 04:30:22;;;;;;;;;31.50;26.00;;;;;13.46;79.27;100238.03;113475;222;170770;-58
2024/04/10 04:33:03;;;;;;;;;25.00;22.00;;;;;13.60;79.07;100244.21;113661;225;39988;-58
2024/04/10 04:35:40;;;;;;;;;32.00;27.00;;;;;13.74;79.08;100253.73;113769;222;39691;-55
2024/04/10 04:38:17;;;;;;;;;27.50;23.00;;;;;13.85;78.77;100259.60;113097;225;170913;-55
2024/04/10 04:40:56;;;;;;;;;32.00;26.00;;;;;13.97;78.61;100267.74;113677;224;40795;-58
2024/04/10 04:43:30;;;;;;;;;30.67;25.33;;;;;14.16;78.53;100278.92;113434;221;170365;-56
2024/04/10 04:46:11;;;;;;;;;34.00;26.00;;;;;14.36;78.34;100278.22;113667;224;40893;-59
2024/04/10 04:48:48;;;;;;;;;31.67;25.67;;;;;14.62;78.25;100279.59;113504;220;170884;-58
2024/04/10 04:51:31;;;;;;;;;34.00;27.00;;;;;14.80;78.11;100279.80;113561;223;41754;-58
2024/04/10 04:54:07;;;;;;;;;31.00;27.00;;;;;14.97;78.04;100281.70;113644;220;39882;-54
2024/04/10 04:56:41;;;;;;;;;32.50;27.00;;;;;15.24;77.61;100288.19;113623;220;41991;-55
2024/04/10 04:59:21;;;;;;;;;33.00;28.00;;;;;15.50;77.37;100294.63;113653;223;41528;-58
2024/04/10 05:01:59;;;;;;;;;32.67;26.33;;;;;15.79;77.09;100298.87;113375;224;169882;-57
2024/04/10 05:07:39;;;;;;;;;32.00;27.00;;;;;16.30;76.40;100315.44;113592;220;169834;-58
2024/04/10 05:10:18;;;;;;;;;30.00;25.00;;;;;16.42;76.04;100323.84;113656;220;39924;-55
2024/04/10 05:12:58;;;;;;;;;32.00;27.00;;;;;16.48;75.90;100334.08;113410;224;170797;-54
2024/04/10 05:15:35;;;;;;;;;30.50;24.00;;;;;16.73;75.62;100341.30;113581;224;40329;-55
2024/04/10 05:18:21;;;;;;;;;33.50;26.00;;;;;17.01;75.35;100356.64;113463;220;170804;-55
2024/04/10 05:21:02;;;;;;;;;33.00;27.00;;;;;17.24;75.12;100360.09;113596;220;40439;-55
2024/04/10 05:23:43;;;;;;;;;32.75;28.75;;;;;17.39;74.71;100372.73;113572;220;39985;-55
2024/04/10 05:26:25;;;;;;;;;33.50;28.50;;;;;17.64;74.17;100377.73;113358;220;169777;-55
2024/04/10 05:29:02;;;;;;;;;32.50;27.00;;;;;17.91;73.76;100386.09;113615;223;42224;-57
2024/04/10 05:31:47;;;;;;;;;30.00;25.00;;;;;18.22;73.20;100387.33;113378;220;169883;-55
2024/04/10 05:34:31;;;;;;;;;35.00;29.00;;;;;18.55;72.86;100389.70;113633;220;40272;-59
2024/04/10 05:37:08;;;;;;;;;38.00;31.00;;;;;18.79;72.17;100390.98;113531;220;169959;-59
2024/04/10 05:39:50;;;;;;;;;34.00;28.00;;;;;19.00;71.56;100397.42;113721;221;39924;-59
2024/04/10 05:42:30;;;;;;;;;32.50;28.00;;;;;19.08;71.09;100408.91;113517;224;170233;-59
2024/04/10 05:45:12;;;;;;;;;35.00;29.00;;;;;19.40;70.42;100408.61;113692;221;40030;-59
2024/04/10 05:47:52;;;;;;;;;36.00;30.00;;;;;19.51;70.12;100414.08;113721;221;41061;-59
2024/04/10 05:50:35;;;;;;;;;37.00;30.00;;;;;19.89;69.08;100420.59;113431;221;170008;-55
2024/04/10 05:53:20;;;;;;;;;35.00;29.00;;;;;19.66;68.48;100427.81;113673;221;39785;-55
2024/04/10 05:56:04;;;;;;;;;34.67;28.67;;;;;19.32;68.48;100432.05;113429;221;169946;-54
2024/04/10 05:58:48;;;;;;;;;36.00;30.00;;;;;18.91;68.72;100443.02;113622;224;42174;-55
2024/04/10 06:01:29;;;;;;;;;35.00;29.00;;;;;18.50;68.88;100458.09;113315;222;169868;-54
2024/04/10 06:04:15;;;;;;;;;32.50;27.00;;;;;18.41;69.10;100467.05;113610;225;40105;-55
2024/04/10 06:07:00;;;;;;;;;32.33;27.67;;;;;18.29;69.33;100476.69;113373;224;170159;-55
2024/04/10 06:09:35;;;;;;;;;33.00;27.00;;;;;18.17;69.48;100488.00;113564;224;41787;-58
2024/04/10 06:12:11;;;;;;;;;33.00;28.00;;;;;17.94;69.70;100490.41;113546;221;41797;-58
2024/04/10 06:14:53;;;;;;;;;33.50;28.50;;;;;17.64;70.15;100496.48;113564;221;40881;-55
2024/04/10 06:17:33;;;;;;;;;36.33;29.67;;;;;17.49;70.61;100503.81;113575;221;39963;-54
2024/04/10 06:20:11;;;;;;;;;31.50;26.00;;;;;17.46;70.72;100503.18;113398;224;169997;-55
2024/04/10 06:22:49;;;;;;;;;34.00;27.00;;;;;17.45;70.78;100505.75;113599;221;40542;-55
2024/04/10 06:25:28;;;;;;;;;34.00;27.00;;;;;17.37;70.83;100506.75;113404;221;169854;-55
2024/04/10 06:28:04;;;;;;;;;31.33;25.33;;;;;17.32;70.83;100505.93;113470;221;41556;-55
2024/04/10 06:30:41;;;;;;;;;29.50;24.50;;;;;17.36;70.70;100512.40;113424;221;170161;-55
2024/04/10 06:33:23;;;;;;;;;29.00;24.00;;;;;17.28;70.58;100519.92;113567;224;40340;-56
2024/04/10 06:36:03;;;;;;;;;30.00;24.00;;;;;17.26;70.55;100528.45;113638;221;40181;-54
2024/04/10 06:38:39;;;;;;;;;29.00;23.00;;;;;17.24;70.35;100537.60;113532;224;170144;-57
2024/04/10 06:41:17;;;;;;;;;28.00;23.00;;;;;17.02;70.54;100546.84;113710;220;40767;-58
2024/04/10 06:43:52;;;;;;;;;23.00;20.00;;;;;16.88;70.65;100553.51;113592;220;170570;-58
2024/04/10 06:46:26;;;;;;;;;28.00;23.00;;;;;16.76;70.55;100555.48;113140;220;766925;-58
2024/04/10 06:49:08;;;;;;;;;26.50;21.50;;;;;16.61;70.53;100557.48;113576;220;169994;-55
2024/04/10 06:51:45;;;;;;;;;26.00;22.00;;;;;16.66;70.73;100563.20;113625;220;40424;-54
2024/04/10 06:54:23;;;;;;;;;25.00;20.00;;;;;16.66;70.76;100568.42;113484;223;170742;-59
2024/04/10 06:56:59;;;;;;;;;26.50;20.50;;;;;16.65;70.68;100572.23;113604;224;40640;-65
2024/04/10 06:59:36;;;;;;;;;24.00;20.00;;;;;16.61;70.70;100579.89;113613;220;41732;-62
2024/04/10 07:02:11;;;;;;;;;29.00;22.00;;;;;16.67;70.73;100584.58;113413;220;170588;-62
2024/04/10 07:04:47;;;;;;;;;23.00;20.00;;;;;16.68;70.48;100589.11;113644;220;40149;-65
2024/04/10 07:07:21;;;;;;;;;19.00;16.50;;;;;16.53;70.54;100593.96;113392;223;170356;-65
2024/04/10 07:09:57;;;;;;;;;19.00;15.00;;;;;16.40;70.21;100599.67;113614;220;40422;-62
2024/04/10 07:12:40;;;;;;;;;14.00;12.00;;;;;16.27;70.08;100610.14;113368;224;169902;-62
2024/04/10 07:15:22;;;;;;;;;10.00;9.00;;;;;16.13;69.87;100620.63;113637;224;40290;-62
2024/04/10 07:18:01;;;;;;;;;12.00;9.00;;;;;16.08;69.55;100631.78;113585;220;40224;-62
2024/04/10 07:20:44;;;;;;;;;11.00;10.00;;;;;16.02;69.59;100639.55;113407;220;169304;-57
2024/04/10 07:23:24;;;;;;;;;10.00;10.00;;;;;15.90;69.57;100644.48;113655;220;41926;-53
2024/04/10 07:26:13;;;;;;;;;9.00;8.00;;;;;15.80;69.32;100650.81;113408;220;169689;-56
2024/04/10 07:28:48;;;;;;;;;7.00;7.00;;;;;15.74;69.32;100650.80;113692;220;40797;-59
2024/04/10 07:31:28;;;;;;;;;7.50;6.00;;;;;15.71;69.23;100662.25;113631;224;169078;-59
2024/04/10 07:34:14;;;;;;;;;6.00;6.00;;;;;15.69;69.14;100665.41;113751;223;40549;-58
2024/04/10 07:36:52;;;;;;;;;6.50;6.00;;;;;15.64;68.87;100663.66;113420;223;169592;-58
2024/04/10 07:39:35;;;;;;;;;8.00;6.00;;;;;15.67;68.74;100669.81;113664;223;40230;-59
2024/04/10 07:42:14;;;;;;;;;8.00;6.00;;;;;15.64;68.61;100675.10;113720;220;41742;-63
2024/04/10 07:44:55;;;;;;;;;6.00;6.00;;;;;15.70;68.56;100679.94;113664;221;40565;-57
2024/04/10 07:47:35;;;;;;;;;4.50;4.00;;;;;15.77;68.48;100681.59;113590;220;41348;-56
2024/04/10 07:50:10;;;;;;;;;8.00;6.00;;;;;15.83;68.21;100684.80;113391;224;169424;-55
2024/04/10 07:52:45;;;;;;;;;5.00;4.00;;;;;15.87;68.00;100689.38;113575;220;40423;-55
2024/04/10 07:55:22;;;;;;;;;5.00;4.00;;;;;15.89;67.77;100699.10;113400;220;169383;-55
2024/04/10 07:58:04;;;;;;;;;3.67;3.67;;;;;15.85;67.54;100709.89;113565;220;41443;-55
2024/04/10 08:00:41;;;;;;;;;4.00;4.00;;;;;15.91;67.33;100717.27;113441;223;169259;-57
2024/04/10 08:03:20;;;;;;;;;5.00;4.00;;;;;15.97;67.46;100720.52;113596;220;40642;-58
2024/04/10 08:05:57;;;;;;;;;4.00;3.00;;;;;15.98;67.00;100722.95;113606;220;40864;-54
2024/04/10 08:08:35;;;;;;;;;2.00;2.00;;;;;16.03;66.78;100722.47;113379;223;169351;-58
2024/04/10 08:11:15;;;;;;;;;3.00;3.00;;;;;16.14;66.44;100724.52;113691;219;40229;-58
2024/04/10 08:13:51;;;;;;;;;5.00;3.00;;;;;16.22;66.07;100725.39;113429;219;169252;-57
2024/04/10 08:16:29;;;;;;;;;3.00;3.00;;;;;16.31;65.75;100728.02;113545;220;39909;-57
2024/04/10 08:19:07;;;;;;;;;5.00;4.00;;;;;16.37;65.26;100733.31;113464;219;169522;-57
2024/04/10 08:21:47;;;;;;;;;4.00;4.00;;;;;16.34;64.72;100737.10;113621;220;41462;-57
2024/04/10 08:24:24;;;;;;;;;2.00;2.00;;;;;16.40;64.08;100738.33;113388;223;169514;-60
2024/04/10 08:27:07;;;;;;;;;3.00;3.00;;;;;16.51;63.87;100743.40;113689;219;41288;-59
2024/04/10 08:29:41;;;;;;;;;4.00;4.00;;;;;16.69;63.27;100751.14;113739;219;40711;-58
2024/04/10 08:32:17;;;;;;;;;4.00;3.00;;;;;16.88;62.70;100752.63;113546;220;169667;-58
2024/04/10 08:35:01;;;;;;;;;5.00;4.00;;;;;17.12;62.59;100758.35;113715;223;41362;-54
2024/04/10 08:37:39;;;;;;;;;4.00;4.00;;;;;17.18;61.75;100756.51;113416;219;169410;-54
2024/04/10 08:40:15;;;;;;;;;3.67;3.00;;;;;17.25;61.67;100761.33;113607;223;40523;-56
2024/04/10 08:42:57;;;;;;;;;3.00;3.00;;;;;17.48;61.52;100757.91;113460;219;169530;-56
2024/04/10 08:45:35;;;;;;;;;4.00;4.00;;;;;17.64;61.00;100762.75;113644;220;41402;-55
2024/04/10 08:48:10;;;;;;;;;3.00;3.00;;;;;17.80;60.35;100758.98;113613;219;41482;-55
2024/04/10 08:50:48;;;;;;;;;4.00;3.00;;;;;17.85;60.21;100763.11;113691;222;41516;-59
2024/04/10 08:53:30;;;;;;;;;5.00;4.00;;;;;18.17;59.69;100772.57;113703;225;40889;-59
2024/04/10 08:56:05;;;;;;;;;3.00;3.00;;;;;18.90;59.75;100775.38;113468;220;169560;-56
2024/04/10 08:58:48;;;;;;;;;6.00;4.00;;;;;19.57;59.00;100774.90;113672;220;40145;-58
2024/04/10 09:01:43;;;;;;;;;4.00;3.00;;;;;20.20;57.92;100782.33;113398;220;170070;-59
2024/04/10 09:04:22;;;;;;;;;3.00;3.00;;;;;20.72;56.49;100780.46;113655;220;41213;-59
2024/04/10 09:07:07;;;;;;;;;4.00;4.00;;;;;21.12;54.84;100787.14;113659;223;170030;-59
2024/04/10 09:09:46;;;;;;;;;4.00;3.67;;;;;21.12;53.12;100785.40;113726;220;40040;-59
2024/04/10 09:12:33;;;;;;;;;3.00;3.00;;;;;21.78;53.41;100792.39;113432;220;170402;-57
2024/04/10 09:15:11;;;;;;;;;4.50;4.00;;;;;22.49;52.51;100794.77;113704;224;40259;-58
2024/04/10 09:17:47;;;;;;;;;4.00;3.00;;;;;22.63;51.38;100804.95;113877;220;39994;-59
2024/04/10 09:20:22;;;;;;;;;5.00;5.00;;;;;22.64;50.97;100803.41;113602;224;169928;-60
2024/04/10 09:23:09;;;;;;;;;6.00;5.00;;;;;22.68;50.24;100805.69;113743;220;41418;-59
2024/04/10 09:25:50;;;;;;;;;5.00;5.00;;;;;23.02;49.76;100809.11;113480;220;170013;-58
2024/04/10 09:28:28;;;;;;;;;6.00;5.00;;;;;23.15;48.49;100808.25;113673;220;40609;-58
2024/04/10 09:31:07;;;;;;;;;6.00;5.00;;;;;23.23;48.61;100817.36;113568;220;169151;-59
2024/04/10 09:33:42;;;;;;;;;6.00;5.00;;;;;23.30;47.55;100822.71;113728;224;42202;-58
2024/04/10 09:36:19;;;;;;;;;6.00;5.00;;;;;22.90;47.39;100832.15;113685;220;40857;-59
2024/04/10 09:38:57;;;;;;;;;6.00;5.00;;;;;22.62;47.16;100837.89;113637;221;40556;-55
2024/04/10 09:41:38;;;;;;;;;5.00;5.00;;;;;22.11;47.13;100843.98;113593;220;41209;-55
2024/04/10 09:44:21;;;;;;;;;7.00;5.00;;;;;21.96;47.55;100839.31;113431;224;170064;-60
2024/04/10 09:47:01;;;;;;;;;4.00;4.00;;;;;22.09;47.54;100839.23;113711;223;40393;-58
2024/04/10 09:49:42;;;;;;;;;6.00;5.00;;;;;21.78;47.15;100835.02;113461;220;169368;-58
2024/04/10 09:52:18;;;;;;;;;6.00;5.00;;;;;21.46;47.03;100841.86;113590;220;39945;-58
2024/04/10 09:54:57;;;;;;;;;6.00;5.00;;;;;21.25;47.24;100848.09;113463;220;169523;-56
2024/04/10 09:57:36;;;;;;;;;5.00;5.00;;;;;21.31;47.75;100851.89;113601;224;40342;-56
2024/04/10 10:00:13;;;;;;;;;4.50;4.00;;;;;21.36;47.53;100852.97;113608;224;40189;-56
2024/04/10 10:02:49;;;;;;;;;6.00;5.00;;;;;21.46;47.72;100859.85;113565;221;40736;-56
2024/04/10 10:05:28;;;;;;;;;5.00;4.00;;;;;21.52;47.44;100861.15;113733;221;40640;-59
2024/04/10 10:08:14;;;;;;;;;5.00;5.00;;;;;21.34;47.21;100862.15;113661;224;169550;-60
2024/04/10 10:10:53;;;;;;;;;5.00;4.00;;;;;21.08;46.98;100870.72;113791;223;40514;-59
2024/04/10 10:13:45;;;;;;;;;7.00;6.00;;;;;20.91;47.22;100880.96;113564;223;169671;-58
2024/04/10 10:16:31;;;;;;;;;4.00;4.00;;;;;20.76;47.20;100881.69;113663;220;39844;-59
2024/04/10 10:19:06;;;;;;;;;7.00;6.00;;;;;20.97;47.00;100892.70;113492;223;169524;-58
2024/04/10 10:21:46;;;;;;;;;5.00;5.00;;;;;20.99;46.98;100896.45;113592;224;41209;-59
2024/04/10 10:24:29;;;;;;;;;5.50;4.00;;;;;21.11;47.29;100900.15;113630;220;40361;-56
2024/04/10 10:27:08;;;;;;;;;6.00;5.00;;;;;21.21;46.89;100903.27;113539;225;40830;-56
2024/04/10 10:29:46;;;;;;;;;5.00;5.00;;;;;21.29;46.86;100900.28;113562;224;40324;-56
2024/04/10 10:32:28;;;;;;;;;5.00;4.50;;;;;21.25;46.42;100908.61;113365;224;169484;-55
2024/04/10 10:35:12;;;;;;;;;5.00;4.00;;;;;20.72;46.18;100909.80;113720;220;40234;-58
2024/04/10 10:37:49;;;;;;;;;5.00;4.00;;;;;20.52;46.41;100911.58;113491;220;169405;-59
2024/04/10 10:40:34;;;;;;;;;4.00;4.00;;;;;20.56;46.94;100913.87;113731;220;40384;-56
2024/04/10 10:43:12;;;;;;;;;5.00;4.00;;;;;20.88;46.98;100919.29;113412;220;169543;-55
2024/04/10 10:45:50;;;;;;;;;5.00;5.00;;;;;21.11;46.44;100916.60;113692;220;40540;-55
2024/04/10 10:48:29;;;;;;;;;4.50;4.00;;;;;21.14;46.35;100926.11;113610;223;41523;-54
2024/04/10 10:51:05;;;;;;;;;3.00;3.00;;;;;21.00;46.30;100926.75;113582;220;41007;-54
2024/04/10 10:53:39;;;;;;;;;7.00;5.00;;;;;20.84;46.02;100928.49;113624;220;41207;-55
2024/04/10 10:56:25;;;;;;;;;4.00;4.00;;;;;20.70;46.78;100930.84;113265;221;169463;-55
2024/04/10 10:59:15;;;;;;;;;6.00;5.00;;;;;20.91;46.67;100936.39;113615;221;41390;-56
2024/04/10 11:01:57;;;;;;;;;4.50;4.50;;;;;20.95;46.23;100949.05;113357;224;169462;-56
2024/04/10 11:04:31;;;;;;;;;4.00;4.00;;;;;20.68;46.02;100943.91;113664;224;40934;-59
2024/04/10 11:07:20;;;;;;;;;4.00;4.00;;;;;20.71;46.27;100948.33;113593;224;169572;-60
2024/04/10 11:10:09;;;;;;;;;4.00;4.00;;;;;20.85;46.10;100953.36;113675;224;42034;-59
2024/04/10 11:12:49;;;;;;;;;5.00;4.00;;;;;20.98;45.88;100951.48;113418;224;170010;-58
2024/04/10 11:15:24;;;;;;;;;5.00;4.00;;;;;20.92;45.88;100959.77;113636;224;40008;-55
2024/04/10 11:18:14;;;;;;;;;5.00;5.00;;;;;20.88;45.71;100954.81;113615;224;40389;-55
2024/04/10 11:20:53;;;;;;;;;5.00;5.00;;;;;20.54;45.44;100959.73;113527;221;169157;-58
2024/04/10 11:23:33;;;;;;;;;5.00;5.00;;;;;20.41;45.60;100960.63;113732;224;39881;-59
2024/04/10 11:26:11;;;;;;;;;4.00;4.00;;;;;20.47;45.84;100964.26;113408;224;169477;-54
2024/04/10 11:28:55;;;;;;;;;5.00;5.00;;;;;20.58;45.98;100961.22;113619;224;41298;-60
2024/04/10 11:31:33;;;;;;;;;5.00;4.00;;;;;20.67;46.03;100967.13;113520;224;169456;-59
2024/04/10 11:34:13;;;;;;;;;7.00;6.00;;;;;20.87;46.21;100962.83;113697;224;42107;-59
2024/04/10 11:36:52;;;;;;;;;5.00;4.00;;;;;20.79;46.27;100983.02;113534;221;169670;-59
2024/04/10 11:39:28;;;;;;;;;5.00;5.00;;;;;20.81;46.41;100976.77;113663;221;40279;-62
2024/04/10 11:42:02;;;;;;;;;4.00;4.00;;;;;20.92;46.33;100985.36;113567;224;40115;-58
2024/04/10 11:44:44;;;;;;;;;5.00;4.67;;;;;20.88;46.28;100988.46;113463;224;169378;-60
2024/04/10 11:47:26;;;;;;;;;6.00;4.00;;;;;20.90;46.22;100995.09;113702;221;40036;-59
2024/04/10 11:50:07;;;;;;;;;5.50;4.50;;;;;20.79;46.18;101005.75;113429;224;169624;-55
2024/04/10 11:52:46;;;;;;;;;6.00;6.00;;;;;20.76;46.38;101005.98;113650;221;41547;-55
2024/04/10 11:55:25;;;;;;;;;3.00;3.00;;;;;20.93;46.36;101007.02;113469;221;169451;-54
2024/04/10 11:57:59;;;;;;;;;5.00;4.00;;;;;21.04;46.18;101014.23;113645;221;40004;-59
2024/04/10 12:00:38;;;;;;;;;6.00;5.00;;;;;21.09;46.30;101012.52;113604;221;169670;-59
2024/04/10 12:03:16;;;;;;;;;5.00;5.00;;;;;20.92;46.14;101014.53;113678;221;40747;-59
2024/04/10 12:05:51;;;;;;;;;5.00;4.00;;;;;20.97;46.33;101016.50;113641;225;42782;-54
2024/04/10 12:08:36;;;;;;;;;5.00;4.00;;;;;20.87;46.12;101026.52;113416;221;169600;-54
2024/04/10 12:11:17;;;;;;;;;5.00;4.50;;;;;20.76;46.35;101025.71;113630;221;40866;-60
2024/04/10 12:13:55;;;;;;;;;6.00;5.00;;;;;20.82;46.22;101024.86;113463;224;169559;-58